Time;durP1;ratioP1;P1;durP2;ratioP2;P2;SDS_P1;SDS_P2;PMS_P1;PMS_P2;Temp;Humidity;BMP_temperature;BMP_pressure;BME280_temperature;BME280_humidity;BME280_pressure;Samples;Min_cycle;Max_cycle;Signal;HPM_P1;HPM_P2
2023/05/11 00:00:15;;;;;;;;;7.75;6.00;;;;;13.23;86.77;101200.34;5056307;28;45350;-69
2023/05/11 00:02:40;;;;;;;;;6.00;4.75;;;;;13.22;87.07;101207.41;5056321;28;45339;-71
2023/05/11 00:05:06;;;;;;;;;6.00;3.00;;;;;13.28;87.06;101213.44;5055797;28;46143;-69
2023/05/11 00:07:31;;;;;;;;;4.25;2.00;;;;;13.24;87.27;101199.41;5055649;28;45670;-70
2023/05/11 00:09:56;;;;;;;;;7.00;2.25;;;;;13.31;87.86;101213.38;5056091;28;45256;-70
2023/05/11 00:12:22;;;;;;;;;4.75;3.00;;;;;13.33;87.63;101211.53;5056338;28;45210;-70
2023/05/11 00:14:47;;;;;;;;;7.50;3.25;;;;;13.30;86.86;101203.69;5055668;28;46320;-70
2023/05/11 00:17:17;;;;;;;;;5.00;4.00;;;;;13.33;87.02;101207.13;5055783;28;45326;-70
2023/05/11 00:19:43;;;;;;;;;5.50;4.00;;;;;13.30;87.54;101190.47;5054940;28;45345;-70
2023/05/11 00:22:08;;;;;;;;;4.00;2.00;;;;;13.30;87.70;101199.28;5055834;28;45495;-70
2023/05/11 00:24:33;;;;;;;;;6.00;5.00;;;;;13.25;87.40;101182.66;5055762;28;45342;-70
2023/05/11 00:26:59;;;;;;;;;6.25;3.00;;;;;13.27;88.04;101193.19;5055642;28;45447;-70
2023/05/11 00:29:25;;;;;;;;;4.75;4.75;;;;;13.35;87.56;101199.19;5046123;28;45260;-70
2023/05/11 00:31:50;;;;;;;;;5.75;4.00;;;;;13.33;87.52;101193.03;5035710;28;45537;-70
2023/05/11 00:34:16;;;;;;;;;7.25;5.00;;;;;13.33;87.83;101193.03;5035385;28;46491;-70
2023/05/11 00:36:42;;;;;;;;;7.75;5.00;;;;;13.34;88.00;101198.28;5035479;28;45262;-70
2023/05/11 00:39:11;;;;;;;;;5.75;2.25;;;;;13.35;87.59;101192.09;5035496;28;45306;-70
2023/05/11 00:41:37;;;;;;;;;8.00;4.50;;;;;13.22;87.81;101170.38;5035546;28;45683;-70
2023/05/11 00:44:02;;;;;;;;;6.75;3.75;;;;;13.37;88.16;101200.00;5035188;28;45631;-69
2023/05/11 00:46:28;;;;;;;;;6.50;4.00;;;;;13.34;87.89;101187.72;5035206;28;45362;-69
2023/05/11 00:48:53;;;;;;;;;5.25;3.25;;;;;13.35;88.15;101181.53;5035406;28;45426;-70
2023/05/11 00:51:20;;;;;;;;;6.00;3.50;;;;;13.35;87.52;101172.75;5035672;28;45354;-70
2023/05/11 00:53:46;;;;;;;;;5.75;5.00;;;;;13.41;87.47;101186.63;5035283;28;45662;-70
2023/05/11 00:56:12;;;;;;;;;3.75;3.50;;;;;13.36;88.16;101164.75;5035375;28;45318;-70
2023/05/11 00:58:37;;;;;;;;;6.00;4.50;;;;;13.41;87.48;101176.06;5034265;28;45432;-70
2023/05/11 01:01:04;;;;;;;;;8.50;4.00;;;;;13.18;88.05;101139.63;5035245;28;45338;-70
2023/05/11 01:03:30;;;;;;;;;7.25;4.50;;;;;13.33;87.99;101163.91;5034948;28;46552;-70
2023/05/11 01:06:41;;;;;;;;;3.00;3.00;;;;;13.44;87.47;101167.19;5033521;28;45411;-70
2023/05/11 01:09:39;;;;;;;;;6.25;2.75;;;;;13.43;87.31;101176.00;5035797;28;45510;-70
2023/05/11 01:12:46;;;;;;;;;5.75;3.50;;;;;13.44;86.96;101172.47;5036172;28;45441;-70
2023/05/11 01:15:40;;;;;;;;;8.00;4.00;;;;;13.40;87.30;101174.34;5035550;28;46655;-70
2023/05/11 01:18:23;;;;;;;;;11.00;3.75;;;;;13.34;86.72;101165.66;5035540;28;45515;-70
2023/05/11 01:20:52;;;;;;;;;6.50;3.25;;;;;13.27;87.42;101158.81;5035592;28;45271;-70
2023/05/11 01:23:17;;;;;;;;;4.00;1.50;;;;;13.38;87.29;101175.28;5035589;28;45634;-70
2023/05/11 01:26:01;;;;;;;;;5.00;5.00;;;;;13.37;86.62;101178.84;5035405;28;46298;-70
2023/05/11 01:29:03;;;;;;;;;4.25;4.25;;;;;13.33;87.29;101179.78;5035595;28;45316;-70
2023/05/11 01:31:33;;;;;;;;;7.00;5.25;;;;;13.28;88.00;101177.28;5035725;28;45472;-70
2023/05/11 01:34:05;;;;;;;;;7.00;4.25;;;;;13.27;87.33;101172.03;5035634;28;45548;-70
2023/05/11 01:36:37;;;;;;;;;6.75;5.00;;;;;13.32;87.11;101186.88;5034985;28;46385;-71
2023/05/11 01:39:07;;;;;;;;;7.75;5.75;;;;;13.28;87.51;101179.94;5035509;28;45402;-70
2023/05/11 01:41:34;;;;;;;;;6.00;5.00;;;;;13.33;87.50;101190.38;5034443;28;45724;-70
2023/05/11 01:44:05;;;;;;;;;10.25;7.50;;;;;13.33;87.31;101190.38;5034482;28;45360;-70
2023/05/11 01:46:32;;;;;;;;;7.25;6.50;;;;;13.20;87.45;101172.22;5034490;28;47230;-70
2023/05/11 01:49:01;;;;;;;;;9.75;7.25;;;;;13.31;87.90;101189.56;5034474;28;45404;-70
2023/05/11 01:51:30;;;;;;;;;4.25;4.25;;;;;13.31;88.38;101187.78;5034341;28;45480;-70
2023/05/11 01:53:58;;;;;;;;;11.50;5.50;;;;;13.19;87.88;101169.59;5034859;28;45335;-70
2023/05/11 01:56:25;;;;;;;;;5.50;3.75;;;;;13.33;88.19;101190.38;5034072;28;46475;-70
2023/05/11 01:58:54;;;;;;;;;7.00;5.00;;;;;13.31;88.39;101190.41;5034416;28;45438;-69
2023/05/11 02:01:21;;;;;;;;;5.00;4.25;;;;;13.28;88.43;101187.00;5034580;28;45258;-70
2023/05/11 02:03:48;;;;;;;;;7.25;4.25;;;;;13.34;87.45;101198.28;5034602;28;45436;-70
2023/05/11 02:06:15;;;;;;;;;7.00;5.50;;;;;13.34;88.19;101200.06;5034160;28;47765;-70
2023/05/11 02:08:40;;;;;;;;;8.00;5.75;;;;;13.38;87.95;101201.75;5034022;28;45333;-70
2023/05/11 02:11:08;;;;;;;;;7.75;4.75;;;;;13.38;88.23;101201.75;5034008;28;45664;-70
2023/05/11 02:13:37;;;;;;;;;7.75;5.25;;;;;13.24;87.80;101183.56;5034083;28;45461;-70
2023/05/11 02:16:05;;;;;;;;;7.50;4.75;;;;;13.35;88.12;101200.03;5034067;28;46435;-70
2023/05/11 02:18:32;;;;;;;;;6.25;5.00;;;;;13.39;88.20;101212.28;5032654;28;45351;-70
2023/05/11 02:20:59;;;;;;;;;10.50;6.00;;;;;13.37;88.41;101203.50;5033721;28;45337;-70
2023/05/11 02:23:26;;;;;;;;;8.25;5.25;;;;;13.15;88.57;101174.09;5033982;28;45409;-70
2023/05/11 02:25:53;;;;;;;;;9.50;5.75;;;;;13.34;88.66;101205.34;5033939;28;47361;-70
2023/05/11 02:28:19;;;;;;;;;8.75;7.00;;;;;13.37;88.54;101211.44;5033885;28;45424;-70
2023/05/11 02:30:46;;;;;;;;;9.00;6.25;;;;;13.29;88.76;101196.66;5022681;28;45421;-70
2023/05/11 02:33:20;;;;;;;;;9.00;7.00;;;;;13.39;88.84;101214.94;5024884;28;45780;-70
2023/05/11 02:35:46;;;;;;;;;9.00;6.75;;;;;13.37;88.98;101206.16;5013962;28;45346;-70
2023/05/11 02:38:13;;;;;;;;;8.00;6.00;;;;;13.45;89.22;101213.91;5013820;28;45338;-71
2023/05/11 02:40:46;;;;;;;;;7.25;5.25;;;;;13.45;88.73;101213.91;5014078;28;45445;-70
2023/05/11 02:43:19;;;;;;;;;7.75;5.75;;;;;13.48;87.85;101218.25;5014106;28;45440;-70
2023/05/11 02:45:47;;;;;;;;;4.50;4.00;;;;;13.45;88.55;101207.72;5013374;28;46839;-70
2023/05/11 02:48:23;;;;;;;;;7.50;6.50;;;;;13.48;88.81;101221.75;5013859;28;45213;-70
2023/05/11 02:50:51;;;;;;;;;10.75;6.00;;;;;13.47;89.05;101216.50;5013862;28;45339;-70
2023/05/11 02:53:19;;;;;;;;;6.75;6.25;;;;;13.40;88.99;101202.56;5020167;28;45422;-70
2023/05/11 02:55:45;;;;;;;;;7.00;5.00;;;;;13.47;88.20;101214.72;5033371;28;46709;-70
2023/05/11 02:58:11;;;;;;;;;6.00;4.50;;;;;13.48;88.81;101212.94;5033350;28;45468;-70
2023/05/11 03:00:38;;;;;;;;;7.50;6.00;;;;;13.46;88.61;101218.25;5033387;28;45479;-70
2023/05/11 03:03:03;;;;;;;;;7.75;6.50;;;;;13.45;88.70;101210.34;5033908;28;45341;-69
2023/05/11 03:05:28;;;;;;;;;8.75;6.25;;;;;13.48;88.74;101216.44;5032788;28;45699;-71
2023/05/11 03:07:57;;;;;;;;;15.75;7.00;;;;;13.52;88.24;101220.75;5033103;28;45405;-71
2023/05/11 03:10:26;;;;;;;;;6.25;6.00;;;;;13.48;88.69;101213.81;5033347;28;45488;-70
2023/05/11 03:12:51;;;;;;;;;12.00;6.75;;;;;13.47;88.73;101217.34;5033481;28;45363;-71
2023/05/11 03:15:17;;;;;;;;;5.25;3.75;;;;;13.46;88.79;101209.47;5034149;27;45384;-71
2023/05/11 03:17:43;;;;;;;;;9.00;8.00;;;;;13.46;88.65;101209.47;5033221;28;45245;-70
2023/05/11 03:20:10;;;;;;;;;7.25;4.25;;;;;13.47;88.82;101212.06;5033467;28;45285;-70
2023/05/11 03:22:36;;;;;;;;;7.75;6.00;;;;;13.44;88.52;101206.84;5033292;28;45481;-71
2023/05/11 03:25:03;;;;;;;;;8.75;6.00;;;;;13.54;88.95;101216.28;5016877;28;46505;-70
2023/05/11 03:27:30;;;;;;;;;8.00;6.00;;;;;13.50;88.71;101208.47;5036342;28;45394;-70
2023/05/11 03:29:59;;;;;;;;;11.75;7.50;;;;;13.50;88.54;101203.19;5034973;28;45455;-70
2023/05/11 03:32:24;;;;;;;;;7.00;7.00;;;;;13.47;88.46;101198.84;5036461;28;45357;-70
2023/05/11 03:34:50;;;;;;;;;9.75;6.75;;;;;13.45;89.08;101199.78;5036165;28;45252;-70
2023/05/11 03:37:18;;;;;;;;;9.50;7.00;;;;;13.56;89.12;101210.94;5036098;28;45271;-70
2023/05/11 03:39:47;;;;;;;;;8.00;5.75;;;;;13.56;88.53;101210.94;5036384;28;45343;-70
2023/05/11 03:42:17;;;;;;;;;5.75;5.00;;;;;13.49;88.24;101194.38;5036579;28;45300;-70
2023/05/11 03:44:46;;;;;;;;;8.50;7.00;;;;;13.51;88.31;101205.78;5035767;28;46713;-70
2023/05/11 03:47:14;;;;;;;;;14.75;7.50;;;;;13.47;88.82;101185.59;5035983;28;45322;-70
2023/05/11 03:49:42;;;;;;;;;12.00;11.75;;;;;13.59;88.05;101210.84;5036115;27;45295;-70
2023/05/11 03:52:07;;;;;;;;;12.25;9.00;;;;;13.49;88.53;101188.22;5036125;28;45410;-70
2023/05/11 03:54:33;;;;;;;;;8.50;7.50;;;;;13.54;88.26;101200.41;5035924;28;46188;-70
2023/05/11 03:56:58;;;;;;;;;8.25;7.00;;;;;13.30;88.59;101156.06;5036024;28;45355;-70
2023/05/11 03:59:24;;;;;;;;;8.50;8.00;;;;;13.54;88.52;101200.41;5035974;28;45362;-70
2023/05/11 04:01:52;;;;;;;;;11.50;8.00;;;;;13.49;88.91;101189.09;5036238;28;45407;-70
2023/05/11 04:04:18;;;;;;;;;9.25;6.50;;;;;13.55;88.93;101196.84;5035679;28;46227;-71
2023/05/11 04:06:43;;;;;;;;;11.25;9.50;;;;;13.55;88.79;101190.72;5034573;28;45318;-70
2023/05/11 04:09:08;;;;;;;;;12.00;10.00;;;;;13.55;88.69;101198.66;5029786;27;45527;-70
2023/05/11 04:11:37;;;;;;;;;17.00;12.75;;;;;13.55;88.83;101199.50;5035935;28;45469;-70
2023/05/11 04:14:03;;;;;;;;;12.75;9.75;;;;;13.57;89.06;101204.75;5035886;28;46538;-70
2023/05/11 04:16:29;;;;;;;;;10.50;9.00;;;;;13.44;88.78;101179.56;5035687;28;45425;-70
2023/05/11 04:18:54;;;;;;;;;11.25;10.75;;;;;13.53;89.23;101201.31;5035888;28;45256;-71
2023/05/11 04:21:20;;;;;;;;;11.50;8.75;;;;;13.52;88.91;101199.59;5035840;28;45330;-70
2023/05/11 04:23:45;;;;;;;;;9.25;7.00;;;;;13.56;89.23;101205.66;5035434;28;46468;-70
2023/05/11 04:26:10;;;;;;;;;9.00;8.25;;;;;13.54;88.99;101197.75;5035735;28;45355;-70
2023/05/11 04:28:36;;;;;;;;;11.00;8.00;;;;;13.57;88.79;101208.25;5035726;28;45379;-70
2023/05/11 04:31:01;;;;;;;;;18.75;13.25;;;;;13.35;88.75;101172.75;5035928;28;45332;-70
2023/05/11 04:33:26;;;;;;;;;13.00;12.00;;;;;13.57;88.92;101210.03;5035287;28;46289;-70
2023/05/11 04:35:53;;;;;;;;;12.25;10.25;;;;;13.46;89.17;101197.09;5034829;28;45394;-70
2023/05/11 04:38:19;;;;;;;;;11.00;10.25;;;;;13.61;89.48;101211.69;5035540;28;45387;-71
2023/05/11 04:40:49;;;;;;;;;14.75;10.00;;;;;13.63;88.77;101214.28;5034515;28;45174;-71
2023/05/11 04:43:15;;;;;;;;;9.00;8.75;;;;;13.64;88.90;101219.53;5036568;27;45368;-71
2023/05/11 04:45:40;;;;;;;;;14.50;12.75;;;;;13.64;88.89;101213.41;5033658;28;45501;-71
2023/05/11 04:48:05;;;;;;;;;12.75;11.00;;;;;13.66;88.07;101215.06;5035379;28;45345;-71
2023/05/11 04:50:31;;;;;;;;;10.00;10.00;;;;;13.69;88.53;101214.13;5035661;28;45627;-71
2023/05/11 04:52:57;;;;;;;;;14.50;12.00;;;;;13.73;88.96;101213.13;5034994;28;46673;-70
2023/05/11 04:55:22;;;;;;;;;14.00;11.00;;;;;13.74;88.42;101214.88;5035274;28;45457;-71
2023/05/11 04:57:47;;;;;;;;;13.00;9.75;;;;;13.80;88.15;101217.31;5035373;28;45363;-71
2023/05/11 05:00:13;;;;;;;;;9.50;9.50;;;;;13.74;87.73;101199.84;5035354;28;45556;-71
2023/05/11 05:02:38;;;;;;;;;13.25;11.00;;;;;13.84;88.19;101218.09;5035060;28;46243;-70
2023/05/11 05:05:04;;;;;;;;;11.25;9.25;;;;;13.84;87.54;101212.81;5035045;28;45391;-70
2023/05/11 05:07:29;;;;;;;;;15.00;13.33;;;;;13.89;88.19;101210.91;5035276;27;45292;-71
2023/05/11 05:09:55;;;;;;;;;11.00;10.00;;;;;13.91;87.89;101211.72;5034945;28;45514;-70
2023/05/11 05:12:20;;;;;;;;;12.25;11.00;;;;;13.96;87.43;101212.47;5034867;28;46692;-70
2023/05/11 05:14:45;;;;;;;;;11.50;10.00;;;;;14.02;87.27;101217.56;5035009;28;45217;-70
2023/05/11 05:17:11;;;;;;;;;13.00;10.50;;;;;14.06;87.19;101221.84;5033746;28;45182;-70
2023/05/11 05:19:36;;;;;;;;;16.33;15.00;;;;;14.10;86.96;101228.81;5035348;27;45216;-70
2023/05/11 05:22:02;;;;;;;;;14.25;11.00;;;;;14.08;87.00;101216.53;5034722;28;45622;-70
2023/05/11 05:24:27;;;;;;;;;11.00;9.75;;;;;14.14;86.56;101224.28;5034100;28;45226;-70
2023/05/11 05:26:52;;;;;;;;;11.50;6.75;;;;;14.26;86.17;101237.16;5034946;28;45312;-70
2023/05/11 05:29:18;;;;;;;;;15.25;13.00;;;;;14.20;85.68;101224.09;5035068;28;45317;-70
2023/05/11 05:31:43;;;;;;;;;13.25;11.25;;;;;14.19;86.49;101230.31;5034839;28;45459;-70
2023/05/11 05:34:08;;;;;;;;;19.75;15.50;;;;;14.22;86.31;101234.66;5034513;28;45424;-70
2023/05/11 05:36:34;;;;;;;;;16.75;14.00;;;;;14.18;86.31;101217.97;5034857;28;45390;-70
2023/05/11 05:38:59;;;;;;;;;13.25;9.75;;;;;14.32;86.23;101248.47;5034700;28;45504;-70
2023/05/11 05:41:25;;;;;;;;;12.00;12.00;;;;;14.25;85.78;101232.75;5034478;28;46901;-69
2023/05/11 05:43:50;;;;;;;;;10.75;9.75;;;;;14.26;85.65;101242.47;5034708;28;45286;-69
2023/05/11 05:46:16;;;;;;;;;11.50;9.50;;;;;14.28;85.44;101251.22;5033602;27;45353;-70
2023/05/11 05:48:41;;;;;;;;;13.50;11.50;;;;;14.32;85.51;101248.47;5034619;28;45352;-70
2023/05/11 05:51:07;;;;;;;;;16.67;15.00;;;;;14.23;85.04;101233.72;5034738;28;46626;-69
2023/05/11 05:53:32;;;;;;;;;12.75;10.00;;;;;14.32;85.19;101251.13;5033092;28;45779;-70
2023/05/11 05:55:57;;;;;;;;;24.00;22.00;;;;;14.26;84.88;101242.47;5034457;28;45298;-71
2023/05/11 05:58:23;;;;;;;;;14.67;13.00;;;;;14.33;85.13;101258.16;5034489;28;45449;-71
2023/05/11 06:00:48;;;;;;;;;18.33;12.33;;;;;14.33;85.37;101253.72;5034239;28;46617;-70
2023/05/11 06:03:14;;;;;;;;;18.00;14.00;;;;;14.25;85.41;101243.38;5034317;27;45299;-70
2023/05/11 06:05:39;;;;;;;;;15.67;12.67;;;;;14.31;85.14;101265.28;5034211;28;45203;-70
2023/05/11 06:08:05;;;;;;;;;17.25;12.00;;;;;14.26;85.42;101268.06;5034495;27;45498;-70
2023/05/11 06:10:31;;;;;;;;;12.00;12.00;;;;;14.26;85.51;101273.34;5033714;28;47170;-70
2023/05/11 06:12:56;;;;;;;;;19.33;16.33;;;;;14.21;85.30;101262.91;5034084;28;45459;-70
2023/05/11 06:15:22;;;;;;;;;16.25;13.50;;;;;14.24;85.22;101267.25;5033552;28;46355;-70
2023/05/11 06:17:47;;;;;;;;;14.67;12.67;;;;;14.21;85.27;101265.56;5032700;28;45440;-69
2023/05/11 06:20:13;;;;;;;;;15.00;11.00;;;;;14.14;84.95;101258.69;5033874;28;45336;-70
2023/05/11 06:22:38;;;;;;;;;16.67;13.00;;;;;14.19;85.00;101275.34;5033737;28;45470;-70
2023/05/11 06:25:04;;;;;;;;;18.00;14.33;;;;;14.26;85.01;101286.59;5032010;28;45888;-70
2023/05/11 06:27:38;;;;;;;;;19.00;15.00;;;;;14.12;84.96;101249.09;5034014;28;45295;-70
2023/05/11 06:30:05;;;;;;;;;19.25;15.00;;;;;14.24;84.98;101275.19;5031771;28;46498;-70
2023/05/11 06:32:32;;;;;;;;;14.75;12.00;;;;;14.18;84.89;101272.72;5033573;28;45468;-70
2023/05/11 06:34:57;;;;;;;;;15.75;14.00;;;;;14.20;84.68;101273.53;5033815;28;45283;-70
2023/05/11 06:37:23;;;;;;;;;13.75;12.25;;;;;14.03;84.60;101242.25;5033743;28;45564;-70
2023/05/11 06:39:48;;;;;;;;;18.00;14.33;;;;;14.20;84.74;101274.44;5033498;28;46534;-70
2023/05/11 06:42:14;;;;;;;;;23.00;16.67;;;;;14.10;85.14;101243.81;5033540;28;45507;-70
2023/05/11 06:44:40;;;;;;;;;18.67;16.00;;;;;14.32;84.73;101294.38;5033466;28;45476;-70
2023/05/11 06:47:06;;;;;;;;;20.33;16.00;;;;;14.30;85.41;101271.50;5033829;27;45326;-69
2023/05/11 06:49:31;;;;;;;;;12.00;11.00;;;;;14.37;85.15;101270.41;5032961;28;46464;-69
2023/05/11 06:51:57;;;;;;;;;15.00;13.75;;;;;14.46;85.22;101280.72;5033420;28;45335;-70
2023/05/11 06:54:22;;;;;;;;;14.50;12.50;;;;;14.51;84.54;101277.91;5033463;28;45540;-70
2023/05/11 06:56:47;;;;;;;;;17.33;16.00;;;;;14.60;85.10;101289.09;5033887;28;45239;-70
2023/05/11 06:59:13;;;;;;;;;12.75;10.00;;;;;14.63;84.06;101286.38;5035498;28;45458;-71
2023/05/11 07:01:38;;;;;;;;;18.00;15.33;;;;;14.67;84.25;101287.19;5036529;28;45576;-70
2023/05/11 07:04:04;;;;;;;;;14.50;10.75;;;;;14.67;84.16;101287.19;5036607;28;45457;-70
2023/05/11 07:06:29;;;;;;;;;15.00;13.00;;;;;14.62;83.92;101289.09;5033414;28;45446;-70
2023/05/11 07:08:55;;;;;;;;;12.75;11.25;;;;;14.48;83.42;101273.59;5056405;28;46275;-72
2023/05/11 07:11:21;;;;;;;;;16.00;12.00;;;;;14.31;83.49;101260.84;5056237;27;45415;-71
2023/05/11 07:13:46;;;;;;;;;13.00;13.00;;;;;14.57;84.34;101298.94;5056322;28;45372;-72
2023/05/11 07:16:12;;;;;;;;;14.25;10.00;;;;;14.57;84.41;101291.84;5039841;28;45329;-71
2023/05/11 07:18:37;;;;;;;;;15.75;11.25;;;;;14.48;83.93;101267.41;5023700;28;46334;-70
2023/05/11 07:21:02;;;;;;;;;15.25;9.75;;;;;14.65;84.13;101282.84;5016245;28;45434;-71
2023/05/11 07:23:28;;;;;;;;;11.50;10.50;;;;;14.72;83.39;101295.84;5016099;28;45352;-69
2023/05/11 07:25:56;;;;;;;;;13.50;9.50;;;;;14.78;82.74;101298.31;5016213;28;45450;-70
2023/05/11 07:28:21;;;;;;;;;13.00;12.00;;;;;14.85;83.21;101298.97;5018487;28;46425;-70
2023/05/11 07:30:47;;;;;;;;;9.50;9.50;;;;;14.92;82.64;101295.22;5040446;27;45512;-71
2023/05/11 07:33:12;;;;;;;;;14.50;12.00;;;;;15.01;82.68;101296.69;5038724;28;45393;-70
2023/05/11 07:35:37;;;;;;;;;10.00;8.75;;;;;14.96;82.00;101291.56;5022826;28;45389;-70
2023/05/11 07:38:05;;;;;;;;;12.25;8.25;;;;;14.98;81.98;101287.06;5027660;28;45578;-71
2023/05/11 07:40:30;;;;;;;;;11.75;9.25;;;;;15.08;81.22;101290.28;5054912;27;45368;-70
2023/05/11 07:42:55;;;;;;;;;9.75;8.00;;;;;15.11;81.16;101289.31;5056116;28;45804;-70
2023/05/11 07:45:21;;;;;;;;;8.25;7.25;;;;;15.17;80.75;101285.59;5053406;28;45417;-70
2023/05/11 07:47:46;;;;;;;;;9.75;9.75;;;;;15.26;80.28;101306.50;5036003;27;47183;-70
2023/05/11 07:50:11;;;;;;;;;52.00;42.33;;;;;15.28;80.43;101299.38;5032544;28;45494;-68
2023/05/11 07:52:37;;;;;;;;;12.75;6.75;;;;;15.26;79.96;101290.59;5046265;28;45515;-68
2023/05/11 07:55:02;;;;;;;;;15.50;11.50;;;;;15.34;80.07;101299.16;5041446;28;45393;-68
2023/05/11 07:57:28;;;;;;;;;11.75;9.25;;;;;15.34;79.72;101287.69;5035803;28;47332;-68
2023/05/11 07:59:53;;;;;;;;;13.25;8.00;;;;;15.24;79.19;101266.75;5035991;28;45551;-68
2023/05/11 08:02:18;;;;;;;;;8.00;7.25;;;;;15.44;79.32;101282.00;5035975;28;45219;-68
2023/05/11 08:04:44;;;;;;;;;15.25;9.00;;;;;15.56;78.18;101279.84;5032166;28;45486;-69
2023/05/11 08:07:09;;;;;;;;;10.50;9.25;;;;;15.76;78.07;101300.38;5026599;28;46301;-67
2023/05/11 08:09:35;;;;;;;;;9.00;9.00;;;;;15.93;77.79;101286.50;5034968;28;45285;-69
2023/05/11 08:12:01;;;;;;;;;9.25;8.50;;;;;16.07;76.54;101281.56;5047514;28;45234;-68
2023/05/11 08:14:26;;;;;;;;;12.50;11.00;;;;;16.35;75.83;101301.78;5046312;28;45220;-68
2023/05/11 08:16:52;;;;;;;;;17.00;13.33;;;;;16.43;75.03;101301.50;5055769;28;46323;-68
2023/05/11 08:19:17;;;;;;;;;15.25;11.75;;;;;16.44;75.06;101300.56;5055831;28;45902;-68
2023/05/11 08:21:45;;;;;;;;;21.67;18.67;;;;;16.39;75.37;101289.25;5038144;28;45290;-69
2023/05/11 08:24:10;;;;;;;;;10.50;8.25;;;;;16.50;75.85;101297.69;5035789;28;45524;-68
2023/05/11 08:26:36;;;;;;;;;12.25;10.75;;;;;16.63;74.38;101301.59;5031105;28;46541;-68
2023/05/11 08:29:03;;;;;;;;;11.75;10.00;;;;;16.66;74.64;101292.63;5043476;27;45497;-68
2023/05/11 08:31:28;;;;;;;;;17.25;12.75;;;;;16.83;72.91;101302.56;5039432;28;45400;-68
2023/05/11 08:33:54;;;;;;;;;11.75;10.75;;;;;17.06;73.05;101304.34;5056011;28;45227;-68
2023/05/11 08:36:19;;;;;;;;;13.50;10.00;;;;;17.32;72.20;101303.25;5032145;28;45510;-68
2023/05/11 08:38:45;;;;;;;;;43.00;37.33;;;;;17.51;70.56;101308.66;5039560;28;45450;-68
2023/05/11 08:41:11;;;;;;;;;12.25;9.50;;;;;17.65;69.89;101309.88;5055486;28;45307;-68
2023/05/11 08:43:38;;;;;;;;;15.50;10.75;;;;;17.81;68.19;101315.41;5055518;28;45436;-69
2023/05/11 08:46:06;;;;;;;;;11.00;8.50;;;;;17.81;66.97;101316.25;5055225;28;46300;-69
2023/05/11 08:48:32;;;;;;;;;20.25;10.25;;;;;17.72;66.78;101298.03;5049012;28;45490;-69
2023/05/11 08:50:59;;;;;;;;;10.75;7.00;;;;;17.87;66.33;101309.81;5035472;28;45326;-68
2023/05/11 08:53:24;;;;;;;;;18.67;13.00;;;;;17.86;65.52;101303.63;5028787;28;45532;-68
2023/05/11 08:55:50;;;;;;;;;16.75;12.00;;;;;17.84;65.26;101299.28;5053176;28;45825;-68
2023/05/11 08:58:21;;;;;;;;;13.25;12.75;;;;;17.81;66.88;101300.28;5055310;28;45404;-68
2023/05/11 09:00:48;;;;;;;;;16.67;14.00;;;;;17.78;66.77;101305.75;5046377;28;45367;-68
2023/05/11 09:03:16;;;;;;;;;12.67;10.33;;;;;17.79;66.50;101302.16;5035313;28;45434;-68
2023/05/11 09:05:45;;;;;;;;;10.33;10.33;;;;;17.90;66.63;101304.38;5034668;28;47381;-68
2023/05/11 09:08:12;;;;;;;;;17.00;14.67;;;;;17.99;66.18;101303.94;5035215;27;45401;-68
2023/05/11 09:10:37;;;;;;;;;14.00;11.00;;;;;18.03;65.95;101292.22;5034993;28;45600;-68
2023/05/11 09:13:03;;;;;;;;;19.00;13.33;;;;;18.14;65.27;101296.19;5035307;28;45474;-68
2023/05/11 09:15:29;;;;;;;;;14.67;12.00;;;;;18.09;64.72;101291.06;5034869;28;46278;-68
2023/05/11 09:17:54;;;;;;;;;22.67;16.67;;;;;18.22;64.94;101291.38;5034678;28;45399;-67
2023/05/11 09:20:28;;;;;;;;;12.00;10.67;;;;;18.39;63.06;101295.94;5035385;28;45292;-68
2023/05/11 09:22:54;;;;;;;;;14.00;14.00;;;;;18.39;63.58;101307.47;5034958;28;45554;-68
2023/05/11 09:25:21;;;;;;;;;15.00;13.00;;;;;18.39;63.58;101285.28;5034650;28;45317;-67
2023/05/11 09:27:47;;;;;;;;;19.00;12.33;;;;;18.46;63.13;101297.38;5034691;28;45435;-68
2023/05/11 09:30:15;;;;;;;;;15.33;12.67;;;;;18.65;64.56;101304.50;5034863;28;45547;-68
2023/05/11 09:32:49;;;;;;;;;14.33;11.33;;;;;18.74;62.26;101306.75;5035154;28;45313;-68
2023/05/11 09:35:27;;;;;;;;;11.75;8.00;;;;;18.69;61.88;101282.97;5034840;28;45413;-68
2023/05/11 09:37:56;;;;;;;;;18.00;13.33;;;;;18.75;61.43;101290.66;5034685;28;45345;-68
2023/05/11 09:40:21;;;;;;;;;13.00;12.25;;;;;19.01;61.37;101290.34;5034749;28;45427;-68
2023/05/11 09:42:47;;;;;;;;;8.33;7.00;;;;;19.61;60.34;101295.34;5034964;28;45255;-68
2023/05/11 09:45:12;;;;;;;;;23.33;18.67;;;;;20.15;58.48;101296.03;5034370;27;46613;-67
2023/05/11 09:47:39;;;;;;;;;13.67;10.67;;;;;20.20;57.47;101285.09;5034752;28;45385;-67
2023/05/11 09:50:17;;;;;;;;;9.00;8.00;;;;;21.28;57.71;101287.03;5034541;28;45337;-68
2023/05/11 09:52:52;;;;;;;;;10.00;10.00;;;;;23.72;54.07;101278.69;5034682;28;45558;-67
2023/05/11 09:55:17;;;;;;;;;10.00;8.00;;;;;24.95;48.98;101279.72;5034073;28;46464;-67
2023/05/11 09:57:55;;;;;;;;;10.00;8.67;;;;;25.03;47.89;101288.94;5034509;28;45247;-67
2023/05/11 10:00:21;;;;;;;;;9.00;7.00;;;;;24.62;46.85;101287.53;5034587;28;45337;-67
2023/05/11 10:03:04;;;;;;;;;6.33;6.33;;;;;24.07;47.17;101286.13;5034507;28;45376;-68
2023/05/11 10:05:34;;;;;;;;;9.67;7.33;;;;;23.59;47.52;101278.66;5033435;28;45411;-68
2023/05/11 10:08:04;;;;;;;;;9.00;7.00;;;;;23.11;47.80;101282.78;5034302;28;45409;-68
2023/05/11 10:10:31;;;;;;;;;28.33;27.67;;;;;22.68;47.91;101282.03;5034389;28;45485;-68
2023/05/11 10:12:58;;;;;;;;;4.33;4.33;;;;;22.29;49.35;101283.63;5034207;28;45228;-68
2023/05/11 10:15:27;;;;;;;;;8.67;8.00;;;;;21.96;50.62;101285.66;5034123;28;46365;-66
2023/05/11 10:17:57;;;;;;;;;8.00;8.00;;;;;21.67;50.74;101284.78;5033911;28;45568;-66
2023/05/11 10:20:24;;;;;;;;;6.67;6.67;;;;;21.43;50.28;101279.91;5034283;28;45418;-66
2023/05/11 10:22:52;;;;;;;;;12.00;9.67;;;;;21.13;50.35;101270.06;5034423;28;45389;-66
2023/05/11 10:25:20;;;;;;;;;10.67;9.67;;;;;20.93;51.40;101271.22;5033832;28;46419;-66
2023/05/11 10:27:46;;;;;;;;;12.67;8.00;;;;;20.69;51.07;101279.72;5034008;28;45242;-66
2023/05/11 10:30:12;;;;;;;;;6.67;6.67;;;;;20.42;51.62;101271.41;5033782;28;45300;-66
2023/05/11 10:32:37;;;;;;;;;10.67;7.33;;;;;20.27;52.57;101281.13;5034268;28;45323;-66
2023/05/11 10:35:05;;;;;;;;;11.00;8.00;;;;;20.13;53.52;101278.38;5036866;28;46445;-66
2023/05/11 10:37:31;;;;;;;;;12.75;10.50;;;;;19.89;54.01;101270.72;5036857;28;45358;-66
2023/05/11 10:39:58;;;;;;;;;12.00;11.67;;;;;19.66;55.05;101262.09;5037148;28;45353;-66
2023/05/11 10:42:57;;;;;;;;;19.00;13.33;;;;;19.49;56.77;101279.00;5037023;28;45391;-66
2023/05/11 10:45:32;;;;;;;;;14.00;14.00;;;;;19.18;57.94;101282.34;5036421;28;46819;-66
2023/05/11 10:48:19;;;;;;;;;11.67;11.00;;;;;18.83;59.26;101281.41;5036643;28;45367;-66
2023/05/11 10:51:16;;;;;;;;;11.00;9.00;;;;;18.36;61.08;101251.63;5036890;28;45486;-66
2023/05/11 10:54:06;;;;;;;;;9.00;7.50;;;;;18.39;60.87;101283.47;5037036;28;45429;-66
2023/05/11 10:56:46;;;;;;;;;8.00;8.00;;;;;18.17;61.01;101302.25;5036459;28;46339;-66
2023/05/11 10:59:40;;;;;;;;;8.75;8.75;;;;;18.00;61.20;101300.34;5036568;28;45378;-66
2023/05/11 11:02:07;;;;;;;;;6.25;6.00;;;;;17.81;63.27;101297.63;5036833;28;45463;-67
2023/05/11 11:04:45;;;;;;;;;7.75;5.00;;;;;17.69;62.48;101301.69;5036610;28;45407;-67
2023/05/11 11:07:15;;;;;;;;;3.75;2.00;;;;;17.47;61.96;101285.78;5036524;28;46518;-67
2023/05/11 11:10:05;;;;;;;;;7.00;5.00;;;;;17.26;63.12;101284.03;5036712;28;45324;-67
2023/05/11 11:12:33;;;;;;;;;5.50;5.50;;;;;17.27;64.31;101291.06;5036515;28;45384;-66
2023/05/11 11:15:06;;;;;;;;;9.25;6.50;;;;;17.17;64.50;101291.47;5036833;28;45457;-67
2023/05/11 11:17:33;;;;;;;;;12.25;9.50;;;;;17.05;64.58;101287.53;5036217;28;46518;-67
2023/05/11 11:20:00;;;;;;;;;9.75;9.75;;;;;17.03;65.83;101291.16;5036429;28;45516;-68